Pagrindinis puslapis
METAR-TAF:

METAR-TAF

Oro uostai :

Kristianstadas, Švedija

platuma: 55-55N, ilguma: 014-05E, Aukštis: 23 m

Dabartinis oras

Ataskaita buvo paskelbta 19 minutes, ne 01:50 UTC
Vėjas 8 kt iš Vakarų, svyruoja nuo Pietvakarių ir Vakarų/Šiaurės Vakarų
Temperatūra 4°C
Drėgmė 93%
Slėgis 1015 hPa
Matomumas 10 km arba daugiau
dulksna

METAR: ESMK 010150Z AUTO 26008KT 230V290 9999 -DZ FEW012/// SCT017/// OVC035/// 04/03 Q1015 RERA

Laikas: 04:09 (02:09 UTC)

Prognozė

Ataskaita buvo paskelbta 15 valandos ir 9 minutes, ne 11:00 UTC
Prognozė galioja nuo 31 metu 12 UTC su 31 metu 15 UTC
Vėjas 10 kt iš Vakarų/Šiaurės Vakarų
Matomumas 10 km arba daugiau
Mažai debesys ne aukštis 4000 ft

TAF: ESMK 311100Z 3112/3115 29010KT 9999 FEW040

Orai ataskaitas ir orų prognozės (METAR, TAF).

turimą stotys yra geltonos ir raudonos taškus žemėlapyje.

Perkelti pele per norėdami pamatyti stoties vardą.

Tada spustelėkite, norėdami matyti oro stebėjimo ir prognozės.

Norėdami pakeisti žemėlapį: spustelėkite ant žalios mygtukų su juodo kryžiaus žemyn,; žalią mygtuką su brūkšneliu, jei norite nutolinti; arba žalių rodyklių gretimoms žemėlapius.


METAR-TAF: